sensor_id;sensor_type;location;lat;lon;timestamp;pressure;altitude;pressure_sealevel;temperature;humidity
54600;BME280;40500;51.084;16.958;2022-08-18T00:00:06;99865.81;;;21.96;65.38
54600;BME280;40500;51.084;16.958;2022-08-18T00:02:46;99868.14;;;21.98;65.57
54600;BME280;40500;51.084;16.958;2022-08-18T00:05:29;99870.27;;;22.00;65.54
54600;BME280;40500;51.084;16.958;2022-08-18T00:07:59;99872.02;;;22.03;65.81
54600;BME280;40500;51.084;16.958;2022-08-18T00:10:30;99874.73;;;22.05;65.66
54600;BME280;40500;51.084;16.958;2022-08-18T00:13:01;99873.84;;;22.08;65.78
54600;BME280;40500;51.084;16.958;2022-08-18T00:15:31;99873.56;;;22.06;65.72
54600;BME280;40500;51.084;16.958;2022-08-18T00:18:16;99874.73;;;21.86;66.05
54600;BME280;40500;51.084;16.958;2022-08-18T00:20:47;99870.80;;;21.73;66.28
54600;BME280;40500;51.084;16.958;2022-08-18T00:23:17;99866.60;;;21.67;66.23
54600;BME280;40500;51.084;16.958;2022-08-18T00:25:48;99863.45;;;21.61;66.47
54600;BME280;40500;51.084;16.958;2022-08-18T00:28:18;99862.85;;;21.57;66.57
54600;BME280;40500;51.084;16.958;2022-08-18T00:30:52;99860.65;;;21.53;66.62
54600;BME280;40500;51.084;16.958;2022-08-18T00:33:24;99863.98;;;21.48;66.87
54600;BME280;40500;51.084;16.958;2022-08-18T00:35:57;99864.12;;;21.44;66.88
54600;BME280;40500;51.084;16.958;2022-08-18T00:38:28;99862.17;;;21.41;67.04
54600;BME280;40500;51.084;16.958;2022-08-18T00:40:58;99861.55;;;21.37;67.07
54600;BME280;40500;51.084;16.958;2022-08-18T00:43:33;99860.34;;;21.34;67.05
54600;BME280;40500;51.084;16.958;2022-08-18T00:46:08;99858.96;;;21.32;67.32
54600;BME280;40500;51.084;16.958;2022-08-18T00:48:41;99854.78;;;21.29;67.19
54600;BME280;40500;51.084;16.958;2022-08-18T00:51:20;99854.45;;;21.26;67.31
54600;BME280;40500;51.084;16.958;2022-08-18T00:53:57;99850.08;;;21.25;67.40
54600;BME280;40500;51.084;16.958;2022-08-18T00:56:33;99850.29;;;21.22;67.67
54600;BME280;40500;51.084;16.958;2022-08-18T00:59:09;99847.08;;;21.17;67.85
54600;BME280;40500;51.084;16.958;2022-08-18T01:01:40;99840.05;;;21.18;67.84
54600;BME280;40500;51.084;16.958;2022-08-18T01:04:16;99833.19;;;21.19;67.95
54600;BME280;40500;51.084;16.958;2022-08-18T01:06:52;99829.98;;;21.19;67.96
54600;BME280;40500;51.084;16.958;2022-08-18T01:09:23;99830.05;;;21.19;67.89
54600;BME280;40500;51.084;16.958;2022-08-18T01:11:54;99831.27;;;21.16;67.92
54600;BME280;40500;51.084;16.958;2022-08-18T01:14:27;99828.71;;;21.15;67.97
54600;BME280;40500;51.084;16.958;2022-08-18T01:16:57;99832.20;;;21.13;68.03
54600;BME280;40500;51.084;16.958;2022-08-18T01:19:45;99829.90;;;21.13;68.04
54600;BME280;40500;51.084;16.958;2022-08-18T01:22:38;99834.00;;;21.13;68.23
54600;BME280;40500;51.084;16.958;2022-08-18T01:25:13;99830.11;;;21.07;68.14
54600;BME280;40500;51.084;16.958;2022-08-18T01:28:01;99824.85;;;20.96;68.28
54600;BME280;40500;51.084;16.958;2022-08-18T01:30:43;99827.73;;;20.85;68.66
54600;BME280;40500;51.084;16.958;2022-08-18T01:33:13;99833.52;;;20.75;68.99
54600;BME280;40500;51.084;16.958;2022-08-18T01:35:46;99826.83;;;20.64;69.18
54600;BME280;40500;51.084;16.958;2022-08-18T01:38:19;99825.79;;;20.58;69.34
54600;BME280;40500;51.084;16.958;2022-08-18T01:40:50;99827.51;;;20.59;69.36
54600;BME280;40500;51.084;16.958;2022-08-18T01:43:42;99834.06;;;20.59;69.51
54600;BME280;40500;51.084;16.958;2022-08-18T01:46:19;99840.10;;;20.56;69.62
54600;BME280;40500;51.084;16.958;2022-08-18T01:48:50;99838.52;;;20.56;69.70
54600;BME280;40500;51.084;16.958;2022-08-18T01:51:22;99842.75;;;20.56;69.57
54600;BME280;40500;51.084;16.958;2022-08-18T01:54:10;99840.17;;;20.58;69.62
54600;BME280;40500;51.084;16.958;2022-08-18T01:56:44;99841.70;;;20.59;69.62
54600;BME280;40500;51.084;16.958;2022-08-18T01:59:16;99841.85;;;20.60;69.66
54600;BME280;40500;51.084;16.958;2022-08-18T02:01:47;99839.91;;;20.62;69.77
54600;BME280;40500;51.084;16.958;2022-08-18T02:04:23;99835.80;;;20.62;69.74
54600;BME280;40500;51.084;16.958;2022-08-18T02:07:09;99838.71;;;20.64;69.81
54600;BME280;40500;51.084;16.958;2022-08-18T02:09:41;99838.30;;;20.65;69.83
54600;BME280;40500;51.084;16.958;2022-08-18T02:12:13;99840.52;;;20.64;69.68
54600;BME280;40500;51.084;16.958;2022-08-18T02:14:44;99842.58;;;20.60;69.76
54600;BME280;40500;51.084;16.958;2022-08-18T02:17:15;99839.76;;;20.56;69.85
54600;BME280;40500;51.084;16.958;2022-08-18T02:19:46;99842.33;;;20.55;69.95
54600;BME280;40500;51.084;16.958;2022-08-18T02:22:19;99845.64;;;20.55;70.20
54600;BME280;40500;51.084;16.958;2022-08-18T02:24:50;99841.98;;;20.58;70.15
54600;BME280;40500;51.084;16.958;2022-08-18T02:27:21;99839.77;;;20.59;70.29
54600;BME280;40500;51.084;16.958;2022-08-18T02:29:51;99834.42;;;20.59;70.46
54600;BME280;40500;51.084;16.958;2022-08-18T02:32:23;99834.02;;;20.60;70.53
54600;BME280;40500;51.084;16.958;2022-08-18T02:34:57;99830.61;;;20.61;70.60
54600;BME280;40500;51.084;16.958;2022-08-18T02:37:28;99830.98;;;20.63;70.63
54600;BME280;40500;51.084;16.958;2022-08-18T02:39:59;99830.13;;;20.65;70.61
54600;BME280;40500;51.084;16.958;2022-08-18T02:42:29;99828.59;;;20.67;70.57
54600;BME280;40500;51.084;16.958;2022-08-18T02:45:00;99832.97;;;20.68;70.72
54600;BME280;40500;51.084;16.958;2022-08-18T02:47:31;99835.89;;;20.69;70.69
54600;BME280;40500;51.084;16.958;2022-08-18T02:50:02;99834.02;;;20.70;70.71
54600;BME280;40500;51.084;16.958;2022-08-18T02:52:32;99832.52;;;20.66;70.73
54600;BME280;40500;51.084;16.958;2022-08-18T02:55:04;99835.36;;;20.53;70.85
54600;BME280;40500;51.084;16.958;2022-08-18T02:57:37;99835.93;;;20.41;71.05
54600;BME280;40500;51.084;16.958;2022-08-18T03:00:12;99832.27;;;20.40;71.04
54600;BME280;40500;51.084;16.958;2022-08-18T03:02:46;99829.14;;;20.39;71.07
54600;BME280;40500;51.084;16.958;2022-08-18T03:05:17;99827.85;;;20.39;71.22
54600;BME280;40500;51.084;16.958;2022-08-18T03:07:48;99831.64;;;20.36;70.99
54600;BME280;40500;51.084;16.958;2022-08-18T03:10:19;99825.08;;;20.28;70.96
54600;BME280;40500;51.084;16.958;2022-08-18T03:13:02;99826.98;;;20.18;71.16
54600;BME280;40500;51.084;16.958;2022-08-18T03:15:35;99824.38;;;20.06;71.31
54600;BME280;40500;51.084;16.958;2022-08-18T03:18:05;99822.71;;;20.01;71.51
54600;BME280;40500;51.084;16.958;2022-08-18T03:20:36;99824.37;;;19.95;71.62
54600;BME280;40500;51.084;16.958;2022-08-18T03:23:09;99822.52;;;19.85;71.99
54600;BME280;40500;51.084;16.958;2022-08-18T03:25:46;99823.30;;;19.84;72.08
54600;BME280;40500;51.084;16.958;2022-08-18T03:28:17;99827.95;;;19.83;72.09
54600;BME280;40500;51.084;16.958;2022-08-18T03:30:48;99827.34;;;19.84;72.31
54600;BME280;40500;51.084;16.958;2022-08-18T03:33:21;99831.30;;;19.89;72.28
54600;BME280;40500;51.084;16.958;2022-08-18T03:35:51;99838.14;;;19.93;72.32
54600;BME280;40500;51.084;16.958;2022-08-18T03:38:21;99840.57;;;19.97;72.36
54600;BME280;40500;51.084;16.958;2022-08-18T03:40:53;99837.14;;;20.00;72.31
54600;BME280;40500;51.084;16.958;2022-08-18T03:43:23;99841.39;;;20.04;72.32
54600;BME280;40500;51.084;16.958;2022-08-18T03:46:16;99840.69;;;20.06;72.48
54600;BME280;40500;51.084;16.958;2022-08-18T03:48:48;99847.81;;;20.09;72.60
54600;BME280;40500;51.084;16.958;2022-08-18T03:51:21;99847.45;;;20.11;72.53
54600;BME280;40500;51.084;16.958;2022-08-18T03:53:54;99851.73;;;20.14;72.57
54600;BME280;40500;51.084;16.958;2022-08-18T03:56:29;99853.40;;;20.16;72.59
54600;BME280;40500;51.084;16.958;2022-08-18T03:59:03;99857.30;;;20.19;72.60
54600;BME280;40500;51.084;16.958;2022-08-18T04:01:39;99857.34;;;20.21;72.57
54600;BME280;40500;51.084;16.958;2022-08-18T04:04:11;99865.49;;;20.24;72.58
54600;BME280;40500;51.084;16.958;2022-08-18T04:06:44;99868.70;;;20.27;72.58
54600;BME280;40500;51.084;16.958;2022-08-18T04:09:18;99871.09;;;20.28;72.62
54600;BME280;40500;51.084;16.958;2022-08-18T04:11:50;99871.87;;;20.30;72.68
54600;BME280;40500;51.084;16.958;2022-08-18T04:14:22;99868.98;;;20.31;72.61
54600;BME280;40500;51.084;16.958;2022-08-18T04:16:53;99869.53;;;20.28;72.62
54600;BME280;40500;51.084;16.958;2022-08-18T04:19:24;99869.05;;;20.24;72.74
54600;BME280;40500;51.084;16.958;2022-08-18T04:21:57;99862.17;;;20.21;72.93
54600;BME280;40500;51.084;16.958;2022-08-18T04:24:29;99859.81;;;20.19;73.02
54600;BME280;40500;51.084;16.958;2022-08-18T04:27:03;99860.11;;;20.20;73.26
54600;BME280;40500;51.084;16.958;2022-08-18T04:29:34;99859.42;;;20.19;73.51
54600;BME280;40500;51.084;16.958;2022-08-18T04:32:05;99856.90;;;20.20;73.58
54600;BME280;40500;51.084;16.958;2022-08-18T04:34:36;99860.48;;;20.22;73.68
54600;BME280;40500;51.084;16.958;2022-08-18T04:37:08;99862.80;;;20.25;73.76
54600;BME280;40500;51.084;16.958;2022-08-18T04:39:41;99860.36;;;20.29;73.78
54600;BME280;40500;51.084;16.958;2022-08-18T04:42:12;99865.27;;;20.36;73.82
54600;BME280;40500;51.084;16.958;2022-08-18T04:44:43;99864.86;;;20.45;73.70
54600;BME280;40500;51.084;16.958;2022-08-18T04:47:13;99868.52;;;20.54;73.66
54600;BME280;40500;51.084;16.958;2022-08-18T04:49:45;99867.64;;;20.60;73.54
54600;BME280;40500;51.084;16.958;2022-08-18T04:52:15;99869.30;;;20.67;73.43
54600;BME280;40500;51.084;16.958;2022-08-18T04:55:10;99872.70;;;20.75;73.20
54600;BME280;40500;51.084;16.958;2022-08-18T04:57:41;99871.70;;;20.82;73.22
54600;BME280;40500;51.084;16.958;2022-08-18T05:00:12;99869.88;;;20.88;73.29
54600;BME280;40500;51.084;16.958;2022-08-18T05:02:42;99872.70;;;20.93;73.26
54600;BME280;40500;51.084;16.958;2022-08-18T05:05:13;99871.84;;;21.01;73.02
54600;BME280;40500;51.084;16.958;2022-08-18T05:07:46;99868.70;;;21.08;72.82
54600;BME280;40500;51.084;16.958;2022-08-18T05:10:17;99862.54;;;21.15;72.64
54600;BME280;40500;51.084;16.958;2022-08-18T05:12:51;99867.55;;;21.22;72.57
54600;BME280;40500;51.084;16.958;2022-08-18T05:15:21;99864.48;;;21.28;72.43
54600;BME280;40500;51.084;16.958;2022-08-18T05:17:51;99864.26;;;21.34;72.43
54600;BME280;40500;51.084;16.958;2022-08-18T05:20:22;99865.61;;;21.46;72.30
54600;BME280;40500;51.084;16.958;2022-08-18T05:22:54;99868.33;;;21.70;72.20
54600;BME280;40500;51.084;16.958;2022-08-18T05:25:26;99871.11;;;21.96;71.58
54600;BME280;40500;51.084;16.958;2022-08-18T05:27:57;99880.72;;;22.09;71.27
54600;BME280;40500;51.084;16.958;2022-08-18T05:30:27;99886.02;;;22.27;71.10
54600;BME280;40500;51.084;16.958;2022-08-18T05:32:58;99892.42;;;22.37;70.77
54600;BME280;40500;51.084;16.958;2022-08-18T05:35:34;99892.42;;;22.40;70.39
54600;BME280;40500;51.084;16.958;2022-08-18T05:38:08;99897.42;;;22.44;70.05
54600;BME280;40500;51.084;16.958;2022-08-18T05:40:45;99898.10;;;22.50;69.93
54600;BME280;40500;51.084;16.958;2022-08-18T05:43:28;99892.42;;;22.54;69.80
54600;BME280;40500;51.084;16.958;2022-08-18T05:46:01;99897.10;;;22.59;69.73
54600;BME280;40500;51.084;16.958;2022-08-18T05:48:33;99893.79;;;22.65;69.48
54600;BME280;40500;51.084;16.958;2022-08-18T05:51:15;99894.38;;;22.71;69.27
54600;BME280;40500;51.084;16.958;2022-08-18T05:53:47;99887.91;;;22.77;69.30
54600;BME280;40500;51.084;16.958;2022-08-18T05:56:37;99887.60;;;22.85;69.10
54600;BME280;40500;51.084;16.958;2022-08-18T05:59:22;99892.77;;;22.93;68.72
54600;BME280;40500;51.084;16.958;2022-08-18T06:01:58;99892.84;;;22.97;68.43
54600;BME280;40500;51.084;16.958;2022-08-18T06:04:43;99891.41;;;23.02;68.43
54600;BME280;40500;51.084;16.958;2022-08-18T06:07:18;99891.64;;;23.08;68.28
54600;BME280;40500;51.084;16.958;2022-08-18T06:09:55;99889.38;;;23.15;67.98
54600;BME280;40500;51.084;16.958;2022-08-18T06:12:28;99891.73;;;23.19;67.84
54600;BME280;40500;51.084;16.958;2022-08-18T06:15:12;99893.77;;;23.22;67.60
54600;BME280;40500;51.084;16.958;2022-08-18T06:17:56;99888.84;;;23.26;67.28
54600;BME280;40500;51.084;16.958;2022-08-18T06:20:36;99887.48;;;23.29;67.02
54600;BME280;40500;51.084;16.958;2022-08-18T06:23:21;99885.26;;;23.36;66.96
54600;BME280;40500;51.084;16.958;2022-08-18T06:26:05;99883.55;;;23.44;66.94
54600;BME280;40500;51.084;16.958;2022-08-18T06:28:50;99885.81;;;23.51;66.76
54600;BME280;40500;51.084;16.958;2022-08-18T06:31:28;99878.39;;;23.57;66.85
54600;BME280;40500;51.084;16.958;2022-08-18T06:34:05;99877.28;;;23.62;66.76
54600;BME280;40500;51.084;16.958;2022-08-18T06:36:42;99882.08;;;23.69;66.82
54600;BME280;40500;51.084;16.958;2022-08-18T06:39:22;99883.34;;;23.76;66.59
54600;BME280;40500;51.084;16.958;2022-08-18T06:41:54;99886.39;;;23.81;66.49
54600;BME280;40500;51.084;16.958;2022-08-18T06:44:31;99885.52;;;23.85;66.24
54600;BME280;40500;51.084;16.958;2022-08-18T06:47:07;99886.73;;;23.90;66.00
54600;BME280;40500;51.084;16.958;2022-08-18T06:49:47;99891.55;;;24.08;65.78
54600;BME280;40500;51.084;16.958;2022-08-18T06:52:26;99892.48;;;24.28;65.32
54600;BME280;40500;51.084;16.958;2022-08-18T06:54:59;99895.23;;;24.33;65.44
54600;BME280;40500;51.084;16.958;2022-08-18T06:57:32;99898.49;;;24.41;65.30
54600;BME280;40500;51.084;16.958;2022-08-18T07:00:08;99894.36;;;24.48;65.15
54600;BME280;40500;51.084;16.958;2022-08-18T07:02:44;99892.50;;;24.54;64.86
54600;BME280;40500;51.084;16.958;2022-08-18T07:05:27;99889.02;;;24.61;64.72
54600;BME280;40500;51.084;16.958;2022-08-18T07:08:09;99889.80;;;24.69;64.53
54600;BME280;40500;51.084;16.958;2022-08-18T07:10:43;99886.54;;;24.76;64.38
54600;BME280;40500;51.084;16.958;2022-08-18T07:13:23;99887.58;;;24.83;64.25
54600;BME280;40500;51.084;16.958;2022-08-18T07:18:45;99883.27;;;24.96;63.92
54600;BME280;40500;51.084;16.958;2022-08-18T07:21:26;99881.49;;;25.04;64.10
54600;BME280;40500;51.084;16.958;2022-08-18T07:24:04;99881.04;;;25.12;64.21
54600;BME280;40500;51.084;16.958;2022-08-18T07:27:02;99880.80;;;25.21;63.99
54600;BME280;40500;51.084;16.958;2022-08-18T07:29:35;99872.75;;;25.28;63.93
54600;BME280;40500;51.084;16.958;2022-08-18T07:32:12;99868.96;;;25.32;63.58
54600;BME280;40500;51.084;16.958;2022-08-18T07:34:53;99870.08;;;25.38;63.48
54600;BME280;40500;51.084;16.958;2022-08-18T07:37:30;99871.84;;;25.44;63.42
54600;BME280;40500;51.084;16.958;2022-08-18T07:40:06;99875.23;;;25.49;63.12
54600;BME280;40500;51.084;16.958;2022-08-18T07:42:49;99877.11;;;25.54;62.99
54600;BME280;40500;51.084;16.958;2022-08-18T07:45:35;99870.23;;;25.59;63.14
54600;BME280;40500;51.084;16.958;2022-08-18T07:48:10;99871.27;;;25.63;63.32
54600;BME280;40500;51.084;16.958;2022-08-18T07:51:07;99872.20;;;25.69;63.24
54600;BME280;40500;51.084;16.958;2022-08-18T07:53:53;99880.10;;;25.75;63.04
54600;BME280;40500;51.084;16.958;2022-08-18T07:56:34;99880.90;;;25.82;63.08
54600;BME280;40500;51.084;16.958;2022-08-18T07:59:14;99880.84;;;25.89;62.91
54600;BME280;40500;51.084;16.958;2022-08-18T08:01:50;99885.61;;;25.92;62.60
54600;BME280;40500;51.084;16.958;2022-08-18T08:04:33;99880.98;;;25.98;62.85
54600;BME280;40500;51.084;16.958;2022-08-18T08:07:09;99885.45;;;26.04;62.46
54600;BME280;40500;51.084;16.958;2022-08-18T08:10:07;99880.64;;;26.12;62.37
54600;BME280;40500;51.084;16.958;2022-08-18T08:12:45;99876.88;;;26.16;61.66
54600;BME280;40500;51.084;16.958;2022-08-18T08:15:44;99880.42;;;26.18;60.86
54600;BME280;40500;51.084;16.958;2022-08-18T08:18:23;99889.73;;;26.22;61.14
54600;BME280;40500;51.084;16.958;2022-08-18T08:20:53;99894.08;;;26.26;61.04
54600;BME280;40500;51.084;16.958;2022-08-18T08:23:29;99896.04;;;26.28;60.78
54600;BME280;40500;51.084;16.958;2022-08-18T08:26:30;99900.04;;;26.34;60.25
54600;BME280;40500;51.084;16.958;2022-08-18T08:29:15;99906.04;;;26.41;60.20
54600;BME280;40500;51.084;16.958;2022-08-18T08:31:57;99906.40;;;26.47;59.47
54600;BME280;40500;51.084;16.958;2022-08-18T08:34:34;99906.65;;;26.50;59.17
54600;BME280;40500;51.084;16.958;2022-08-18T08:37:11;99909.21;;;26.54;58.94
54600;BME280;40500;51.084;16.958;2022-08-18T08:39:47;99908.30;;;26.60;59.19
54600;BME280;40500;51.084;16.958;2022-08-18T08:42:24;99906.45;;;26.65;58.90
54600;BME280;40500;51.084;16.958;2022-08-18T08:45:07;99911.89;;;26.72;58.68
54600;BME280;40500;51.084;16.958;2022-08-18T08:47:44;99907.14;;;26.78;58.31
54600;BME280;40500;51.084;16.958;2022-08-18T08:50:23;99912.73;;;26.82;57.88
54600;BME280;40500;51.084;16.958;2022-08-18T08:52:56;99908.48;;;26.90;58.07
54600;BME280;40500;51.084;16.958;2022-08-18T08:55:32;99906.95;;;26.92;57.44
54600;BME280;40500;51.084;16.958;2022-08-18T08:58:14;99905.42;;;26.97;57.55
54600;BME280;40500;51.084;16.958;2022-08-18T09:00:48;99910.66;;;27.09;57.59
54600;BME280;40500;51.084;16.958;2022-08-18T09:03:27;99903.79;;;27.15;57.38
54600;BME280;40500;51.084;16.958;2022-08-18T09:06:11;99901.74;;;27.23;57.56
54600;BME280;40500;51.084;16.958;2022-08-18T09:09:02;99896.86;;;27.34;57.33
54600;BME280;40500;51.084;16.958;2022-08-18T09:14:55;99903.37;;;27.45;56.83
54600;BME280;40500;51.084;16.958;2022-08-18T09:17:48;99894.08;;;27.46;56.83
54600;BME280;40500;51.084;16.958;2022-08-18T09:20:36;99894.73;;;27.49;56.49
54600;BME280;40500;51.084;16.958;2022-08-18T09:23:20;99889.16;;;27.48;56.24
54600;BME280;40500;51.084;16.958;2022-08-18T09:25:55;99884.37;;;27.48;56.08
54600;BME280;40500;51.084;16.958;2022-08-18T09:31:27;99882.35;;;27.71;55.68
54600;BME280;40500;51.084;16.958;2022-08-18T09:34:19;99883.59;;;27.75;55.25
54600;BME280;40500;51.084;16.958;2022-08-18T09:37:04;99880.59;;;27.80;54.99
54600;BME280;40500;51.084;16.958;2022-08-18T09:39:44;99878.13;;;27.88;54.51
54600;BME280;40500;51.084;16.958;2022-08-18T09:42:45;99876.23;;;27.95;54.06
54600;BME280;40500;51.084;16.958;2022-08-18T09:45:51;99869.46;;;28.00;53.63
54600;BME280;40500;51.084;16.958;2022-08-18T09:48:26;99868.11;;;28.01;53.40
54600;BME280;40500;51.084;16.958;2022-08-18T09:51:32;99859.27;;;28.07;53.32
54600;BME280;40500;51.084;16.958;2022-08-18T09:54:19;99859.52;;;28.17;53.08
54600;BME280;40500;51.084;16.958;2022-08-18T09:57:06;99848.86;;;28.19;52.39
54600;BME280;40500;51.084;16.958;2022-08-18T09:59:54;99848.67;;;28.25;52.30
54600;BME280;40500;51.084;16.958;2022-08-18T10:05:40;99836.57;;;28.36;51.70
54600;BME280;40500;51.084;16.958;2022-08-18T10:08:42;99834.13;;;28.41;51.30
54600;BME280;40500;51.084;16.958;2022-08-18T10:11:25;99826.80;;;28.42;51.23
54600;BME280;40500;51.084;16.958;2022-08-18T10:14:11;99817.29;;;28.44;51.37
54600;BME280;40500;51.084;16.958;2022-08-18T10:16:51;99802.81;;;28.44;51.65
54600;BME280;40500;51.084;16.958;2022-08-18T10:19:54;99794.02;;;28.42;51.58
54600;BME280;40500;51.084;16.958;2022-08-18T10:22:40;99795.63;;;28.46;50.90
54600;BME280;40500;51.084;16.958;2022-08-18T10:25:13;99793.14;;;28.51;49.87
54600;BME280;40500;51.084;16.958;2022-08-18T10:27:59;99791.15;;;28.55;50.11
54600;BME280;40500;51.084;16.958;2022-08-18T10:34:01;99787.76;;;28.56;50.39
54600;BME280;40500;51.084;16.958;2022-08-18T10:36:50;99783.39;;;28.55;50.15
54600;BME280;40500;51.084;16.958;2022-08-18T10:39:25;99784.52;;;28.53;50.46
54600;BME280;40500;51.084;16.958;2022-08-18T10:42:11;99785.26;;;28.53;50.25
54600;BME280;40500;51.084;16.958;2022-08-18T10:44:46;99786.46;;;28.55;50.21
54600;BME280;40500;51.084;16.958;2022-08-18T10:47:23;99787.66;;;28.70;50.18
54600;BME280;40500;51.084;16.958;2022-08-18T10:50:21;99785.08;;;28.72;49.91
54600;BME280;40500;51.084;16.958;2022-08-18T10:53:05;99786.54;;;28.72;49.93
54600;BME280;40500;51.084;16.958;2022-08-18T10:56:02;99786.17;;;28.75;48.98
54600;BME280;40500;51.084;16.958;2022-08-18T10:58:44;99785.10;;;28.82;48.36
54600;BME280;40500;51.084;16.958;2022-08-18T11:01:36;99777.52;;;29.00;47.94
54600;BME280;40500;51.084;16.958;2022-08-18T11:04:23;99776.25;;;29.09;47.57
54600;BME280;40500;51.084;16.958;2022-08-18T11:07:26;99770.16;;;29.12;47.50
54600;BME280;40500;51.084;16.958;2022-08-18T11:10:17;99770.66;;;29.11;47.42
54600;BME280;40500;51.084;16.958;2022-08-18T11:13:13;99768.35;;;29.23;46.58
54600;BME280;40500;51.084;16.958;2022-08-18T11:15:59;99771.34;;;29.32;46.41
54600;BME280;40500;51.084;16.958;2022-08-18T11:18:41;99775.55;;;29.27;46.03
54600;BME280;40500;51.084;16.958;2022-08-18T11:21:38;99779.78;;;29.33;45.67
54600;BME280;40500;51.084;16.958;2022-08-18T11:24:15;99780.54;;;29.37;45.74
54600;BME280;40500;51.084;16.958;2022-08-18T11:26:48;99780.27;;;29.38;45.70
54600;BME280;40500;51.084;16.958;2022-08-18T11:29:29;99774.89;;;29.39;45.86
54600;BME280;40500;51.084;16.958;2022-08-18T11:32:06;99771.64;;;29.43;45.74
54600;BME280;40500;51.084;16.958;2022-08-18T11:34:43;99768.76;;;29.48;45.33
54600;BME280;40500;51.084;16.958;2022-08-18T11:37:26;99764.36;;;29.52;44.58
54600;BME280;40500;51.084;16.958;2022-08-18T11:40:30;99759.39;;;29.50;44.42
54600;BME280;40500;51.084;16.958;2022-08-18T11:43:27;99752.79;;;29.52;43.69
54600;BME280;40500;51.084;16.958;2022-08-18T11:46:20;99751.88;;;29.56;43.96
54600;BME280;40500;51.084;16.958;2022-08-18T11:48:58;99751.90;;;29.63;43.94
54600;BME280;40500;51.084;16.958;2022-08-18T11:51:33;99751.70;;;29.71;43.65
54600;BME280;40500;51.084;16.958;2022-08-18T11:54:21;99752.92;;;29.77;43.86
54600;BME280;40500;51.084;16.958;2022-08-18T11:56:53;99754.23;;;29.86;44.28
54600;BME280;40500;51.084;16.958;2022-08-18T11:59:48;99758.75;;;30.04;43.32
54600;BME280;40500;51.084;16.958;2022-08-18T12:02:28;99761.21;;;30.22;41.77
54600;BME280;40500;51.084;16.958;2022-08-18T12:05:01;99754.39;;;30.40;41.39
54600;BME280;40500;51.084;16.958;2022-08-18T12:07:41;99753.38;;;30.48;41.32
54600;BME280;40500;51.084;16.958;2022-08-18T12:10:27;99745.86;;;30.51;41.11
54600;BME280;40500;51.084;16.958;2022-08-18T12:12:58;99747.61;;;30.61;41.32
54600;BME280;40500;51.084;16.958;2022-08-18T12:15:31;99746.41;;;30.72;41.41
54600;BME280;40500;51.084;16.958;2022-08-18T12:18:16;99740.81;;;30.83;41.67
54600;BME280;40500;51.084;16.958;2022-08-18T12:20:58;99736.85;;;30.88;41.22
54600;BME280;40500;51.084;16.958;2022-08-18T12:23:31;99743.84;;;30.97;41.36
54600;BME280;40500;51.084;16.958;2022-08-18T12:26:22;99744.19;;;31.03;42.16
54600;BME280;40500;51.084;16.958;2022-08-18T12:29:06;99748.83;;;31.15;42.48
54600;BME280;40500;51.084;16.958;2022-08-18T12:31:39;99748.04;;;31.22;42.44
54600;BME280;40500;51.084;16.958;2022-08-18T12:34:29;99747.78;;;31.37;42.21
54600;BME280;40500;51.084;16.958;2022-08-18T12:37:01;99748.68;;;31.44;42.10
54600;BME280;40500;51.084;16.958;2022-08-18T12:39:53;99745.77;;;31.50;41.97
54600;BME280;40500;51.084;16.958;2022-08-18T12:42:26;99750.73;;;31.46;42.04
54600;BME280;40500;51.084;16.958;2022-08-18T12:44:59;99758.05;;;31.41;41.60
54600;BME280;40500;51.084;16.958;2022-08-18T12:47:30;99756.73;;;31.38;41.74
54600;BME280;40500;51.084;16.958;2022-08-18T12:50:07;99754.12;;;31.40;41.93
54600;BME280;40500;51.084;16.958;2022-08-18T12:52:38;99747.15;;;31.52;42.05
54600;BME280;40500;51.084;16.958;2022-08-18T12:55:12;99749.64;;;31.68;42.13
54600;BME280;40500;51.084;16.958;2022-08-18T12:57:50;99758.34;;;31.81;42.13
54600;BME280;40500;51.084;16.958;2022-08-18T13:00:22;99758.04;;;31.86;42.14
54600;BME280;40500;51.084;16.958;2022-08-18T13:02:57;99754.79;;;31.98;42.16
54600;BME280;40500;51.084;16.958;2022-08-18T13:05:28;99749.74;;;32.10;42.51
54600;BME280;40500;51.084;16.958;2022-08-18T13:08:01;99742.39;;;32.22;41.47
54600;BME280;40500;51.084;16.958;2022-08-18T13:10:33;99736.54;;;32.28;40.78
54600;BME280;40500;51.084;16.958;2022-08-18T13:13:15;99732.21;;;32.35;40.86
54600;BME280;40500;51.084;16.958;2022-08-18T13:15:47;99731.41;;;32.37;40.76
54600;BME280;40500;51.084;16.958;2022-08-18T13:18:29;99732.33;;;32.41;40.78
54600;BME280;40500;51.084;16.958;2022-08-18T13:21:00;99730.90;;;32.48;40.74
54600;BME280;40500;51.084;16.958;2022-08-18T13:23:31;99725.11;;;32.56;40.35
54600;BME280;40500;51.084;16.958;2022-08-18T13:26:06;99731.48;;;32.63;40.21
54600;BME280;40500;51.084;16.958;2022-08-18T13:28:37;99724.14;;;32.71;39.78
54600;BME280;40500;51.084;16.958;2022-08-18T13:31:26;99721.94;;;32.74;39.51
54600;BME280;40500;51.084;16.958;2022-08-18T13:34:00;99718.70;;;32.81;39.64
54600;BME280;40500;51.084;16.958;2022-08-18T13:36:32;99719.80;;;32.82;39.54
54600;BME280;40500;51.084;16.958;2022-08-18T13:39:15;99714.16;;;32.72;39.58
54600;BME280;40500;51.084;16.958;2022-08-18T13:41:49;99710.05;;;32.79;39.33
54600;BME280;40500;51.084;16.958;2022-08-18T13:44:21;99713.05;;;32.86;39.12
54600;BME280;40500;51.084;16.958;2022-08-18T13:46:54;99720.61;;;32.97;39.55
54600;BME280;40500;51.084;16.958;2022-08-18T13:49:25;99718.98;;;33.08;39.11
54600;BME280;40500;51.084;16.958;2022-08-18T13:51:58;99716.39;;;33.14;38.82
54600;BME280;40500;51.084;16.958;2022-08-18T13:54:34;99712.66;;;33.22;38.74
54600;BME280;40500;51.084;16.958;2022-08-18T13:57:06;99706.19;;;33.29;38.38
54600;BME280;40500;51.084;16.958;2022-08-18T13:59:37;99705.95;;;33.21;38.84